Time;durP1;ratioP1;P1;durP2;ratioP2;P2;SDS_P1;SDS_P2;PMS_P1;PMS_P2;Temp;Humidity;BMP_temperature;BMP_pressure;BME280_temperature;BME280_humidity;BME280_pressure;Samples;Min_cycle;Max_cycle;Signal;HPM_P1;HPM_P2
2023/05/11 00:02:12;;;;;;;1.40;1.00;;;;;;;16.53;55.53;97274.63;5011972;28;20199;-70
2023/05/11 00:04:38;;;;;;;1.50;0.97;;;;;;;16.46;55.55;97265.81;5013604;28;20228;-70
2023/05/11 00:07:03;;;;;;;3.50;1.00;;;;;;;16.46;55.79;97263.97;5013947;28;20298;-69
2023/05/11 00:09:29;;;;;;;1.37;1.27;;;;;;;16.50;55.72;97261.81;5017069;28;20191;-69
2023/05/11 00:11:54;;;;;;;1.93;1.10;;;;;;;16.43;55.79;97267.03;5018411;28;20853;-70
2023/05/11 00:14:20;;;;;;;2.00;0.90;;;;;;;16.39;56.13;97269.22;5008681;28;20204;-70
2023/05/11 00:16:45;;;;;;;1.50;0.90;;;;;;;16.38;56.19;97264.91;5009610;28;20778;-72
2023/05/11 00:19:11;;;;;;;0.90;0.70;;;;;;;16.41;55.59;97264.56;5015391;28;20218;-71
2023/05/11 00:21:36;;;;;;;1.47;0.73;;;;;;;16.39;55.91;97257.81;5015873;28;20195;-71
2023/05/11 00:24:01;;;;;;;1.83;0.80;;;;;;;16.41;55.68;97258.47;5011852;28;20188;-72
2023/05/11 00:26:27;;;;;;;0.90;0.70;;;;;;;16.38;55.83;97264.13;5021555;28;20318;-71
2023/05/11 00:28:52;;;;;;;2.27;1.10;;;;;;;16.43;55.97;97265.19;5013251;28;20732;-71
2023/05/11 00:31:18;;;;;;;1.67;0.97;;;;;;;16.46;55.57;97271.13;5008617;28;20216;-71
2023/05/11 00:33:43;;;;;;;1.30;1.00;;;;;;;16.46;55.34;97253.41;5009086;28;20605;-72
2023/05/11 00:36:09;;;;;;;1.30;1.07;;;;;;;16.43;55.66;97246.69;5009281;28;20228;-70
2023/05/11 00:38:35;;;;;;;1.63;1.33;;;;;;;16.40;55.96;97251.53;5011148;28;20267;-71
2023/05/11 00:41:02;;;;;;;3.80;1.50;;;;;;;16.37;56.32;97250.09;5008583;28;20216;-72
2023/05/11 00:43:27;;;;;;;3.10;1.30;;;;;;;16.40;56.17;97256.81;5009228;28;20439;-71
2023/05/11 00:45:53;;;;;;;2.20;1.50;;;;;;;16.40;55.86;97257.63;5009224;28;20466;-72
2023/05/11 00:48:18;;;;;;;2.53;1.43;;;;;;;16.41;55.73;97264.56;5009422;28;20220;-71
2023/05/11 00:50:44;;;;;;;1.67;1.53;;;;;;;16.41;55.60;97255.81;5012330;28;20243;-70
2023/05/11 00:53:10;;;;;;;1.50;1.40;;;;;;;16.37;57.27;97252.72;4993378;28;20203;-70
2023/05/11 00:55:36;;;;;;;2.47;1.07;;;;;;;16.34;58.06;97253.09;5026477;28;20311;-70
2023/05/11 00:58:04;;;;;;;1.30;1.20;;;;;;;16.35;57.80;97249.44;5029423;28;20458;-70
2023/05/11 01:00:30;;;;;;;7.43;1.30;;;;;;;16.37;57.77;97258.03;5009183;28;20216;-72
2023/05/11 01:02:55;;;;;;;2.13;1.40;;;;;;;16.40;57.70;97252.34;5018380;28;20883;-71
2023/05/11 01:05:21;;;;;;;1.20;0.90;;;;;;;16.43;56.67;97251.97;5012414;28;20763;-70
2023/05/11 01:07:54;;;;;;;1.60;0.90;;;;;;;16.39;56.19;97258.63;5015083;28;20274;-70
2023/05/11 01:10:28;;;;;;;4.47;1.50;;;;;;;16.40;56.50;97254.16;5009503;28;20198;-71
2023/05/11 01:13:15;;;;;;;2.90;1.47;;;;;;;16.34;57.58;97250.47;5014265;28;20431;-71
2023/05/11 01:15:46;;;;;;;2.10;1.03;;;;;;;16.32;58.19;97251.66;5008627;28;20545;-72
2023/05/11 01:18:25;;;;;;;2.00;1.23;;;;;;;16.35;58.78;97254.75;5017826;28;20905;-71
2023/05/11 01:20:55;;;;;;;4.93;2.07;;;;;;;16.34;59.27;97255.75;5008663;28;20472;-70
2023/05/11 01:23:33;;;;;;;1.27;0.83;;;;;;;16.36;59.75;97253.75;5014077;28;20443;-70
2023/05/11 01:26:31;;;;;;;4.43;1.13;;;;;;;16.36;59.85;97248.44;5014485;28;20458;-70
2023/05/11 01:29:11;;;;;;;1.40;1.20;;;;;;;16.31;59.92;97250.81;5012506;28;20443;-71
2023/05/11 01:31:39;;;;;;;3.87;1.10;;;;;;;16.14;60.46;97247.59;5008385;28;20454;-71
2023/05/11 01:34:09;;;;;;;3.83;1.23;;;;;;;16.12;60.49;97249.59;5012197;28;20471;-71
2023/05/11 01:36:38;;;;;;;2.90;1.13;;;;;;;16.09;60.90;97248.16;4992557;28;20459;-72
2023/05/11 01:39:07;;;;;;;0.97;0.87;;;;;;;16.08;61.32;97243.88;5010191;28;20469;-71
2023/05/11 01:41:34;;;;;;;1.00;0.87;;;;;;;16.05;61.44;97246.88;5015272;28;20458;-71
2023/05/11 01:44:03;;;;;;;5.53;1.20;;;;;;;16.04;61.30;97255.81;5014139;28;20463;-72
2023/05/11 01:46:31;;;;;;;2.60;0.87;;;;;;;16.00;61.15;97254.56;5012778;28;21023;-70
2023/05/11 01:48:58;;;;;;;5.83;1.03;;;;;;;16.07;60.65;97244.88;5025078;28;20510;-73
2023/05/11 01:51:26;;;;;;;2.27;1.20;;;;;;;16.03;61.43;97251.53;4998168;28;20434;-72
2023/05/11 01:53:52;;;;;;;3.43;1.47;;;;;;;16.06;61.37;97239.78;5013127;28;21259;-71
2023/05/11 01:56:20;;;;;;;1.10;1.00;;;;;;;16.10;61.14;97247.16;5006931;28;20451;-71
2023/05/11 01:58:47;;;;;;;2.33;1.00;;;;;;;16.11;60.45;97243.50;5017912;28;20280;-70
2023/05/11 02:01:13;;;;;;;1.37;1.03;;;;;;;16.13;60.15;97252.03;5012281;28;20494;-72
2023/05/11 02:03:40;;;;;;;4.73;1.10;;;;;;;16.09;60.37;97250.81;5023068;28;20431;-73
2023/05/11 02:06:06;;;;;;;2.07;1.10;;;;;;;16.11;60.50;97248.81;5016219;28;20943;-72
2023/05/11 02:08:32;;;;;;;1.87;1.00;;;;;;;16.13;60.45;97252.03;5012009;28;20427;-72
2023/05/11 02:10:58;;;;;;;1.53;1.03;;;;;;;16.09;60.43;97250.81;5018742;28;20457;-72
2023/05/11 02:13:25;;;;;;;2.13;1.10;;;;;;;16.12;60.47;97253.09;5023570;28;20188;-72
2023/05/11 02:15:52;;;;;;;3.00;1.60;;;;;;;16.15;60.44;97256.34;5015261;28;20438;-72
2023/05/11 02:18:18;;;;;;;2.37;1.70;;;;;;;16.17;59.96;97256.97;5015704;28;20427;-72
2023/05/11 02:20:44;;;;;;;1.70;1.60;;;;;;;16.15;60.38;97258.97;5016377;28;20423;-72
2023/05/11 02:23:10;;;;;;;3.87;2.23;;;;;;;16.21;60.53;97252.97;5016939;28;20283;-71
2023/05/11 02:25:39;;;;;;;3.80;2.60;;;;;;;16.16;60.00;97245.59;5022721;28;20531;-72
2023/05/11 02:28:05;;;;;;;3.27;2.10;;;;;;;16.18;60.15;97248.88;5021880;28;20230;-72
2023/05/11 02:30:31;;;;;;;1.67;1.10;;;;;;;16.21;58.24;97250.31;5006403;28;20459;-72
2023/05/11 02:33:00;;;;;;;2.13;1.50;;;;;;;16.20;57.96;97252.13;5025242;28;20576;-71
2023/05/11 02:35:28;;;;;;;1.00;0.80;;;;;;;16.20;57.06;97251.31;5015737;28;20475;-71
2023/05/11 02:37:57;;;;;;;1.57;1.00;;;;;;;16.19;56.93;97252.31;5010238;28;21143;-70
2023/05/11 02:40:28;;;;;;;2.63;0.90;;;;;;;16.17;57.02;97246.41;5013987;28;20447;-70
2023/05/11 02:42:59;;;;;;;1.63;0.80;;;;;;;16.19;56.74;97247.84;5016505;28;20435;-70
2023/05/11 02:45:27;;;;;;;1.30;0.83;;;;;;;16.16;56.94;97242.94;5015671;28;20459;-70
2023/05/11 02:47:54;;;;;;;2.33;0.80;;;;;;;16.15;56.58;97245.75;5016846;28;20446;-70
2023/05/11 02:50:23;;;;;;;1.20;0.80;;;;;;;16.17;57.15;97251.69;5016816;28;20816;-72
2023/05/11 02:52:50;;;;;;;4.10;0.90;;;;;;;16.14;57.86;97252.88;5018787;28;20492;-70
2023/05/11 02:55:17;;;;;;;1.77;1.00;;;;;;;16.15;57.95;97253.69;5016853;28;20929;-71
2023/05/11 02:57:43;;;;;;;1.73;0.90;;;;;;;16.13;58.26;97249.41;5017891;28;20828;-71
2023/05/11 03:00:09;;;;;;;3.17;0.90;;;;;;;16.04;57.50;97250.53;5015910;28;20427;-69
2023/05/11 03:02:35;;;;;;;1.50;1.07;;;;;;;16.08;57.63;97245.69;5021962;28;20937;-70
2023/05/11 03:05:00;;;;;;;1.67;0.90;;;;;;;16.10;57.46;97251.59;5021407;28;20535;-72
2023/05/11 03:07:26;;;;;;;1.60;0.90;;;;;;;16.09;57.31;97250.81;5014001;28;20692;-71
2023/05/11 03:09:51;;;;;;;1.67;0.80;;;;;;;16.10;57.01;97246.31;5016370;28;20274;-71
2023/05/11 03:12:17;;;;;;;2.20;1.07;;;;;;;16.10;57.28;97246.31;5019210;28;20187;-71
2023/05/11 03:14:43;;;;;;;1.40;0.90;;;;;;;16.17;56.94;97241.09;5014271;28;20208;-71
2023/05/11 03:17:09;;;;;;;3.90;0.83;;;;;;;16.08;57.42;97238.59;5016116;28;20311;-70
2023/05/11 03:19:34;;;;;;;3.07;1.00;;;;;;;16.00;57.97;97236.06;5017476;28;21011;-71
2023/05/11 03:22:00;;;;;;;3.03;0.97;;;;;;;16.02;58.13;97241.97;5015813;28;20200;-70
2023/05/11 03:24:26;;;;;;;1.60;0.90;;;;;;;16.06;58.14;97240.59;5012458;28;20188;-70
2023/05/11 03:26:54;;;;;;;1.40;0.97;;;;;;;16.05;58.01;97238.94;5009211;28;20214;-70
2023/05/11 03:29:19;;;;;;;1.67;0.90;;;;;;;16.02;58.42;97239.31;5022379;28;20187;-72
2023/05/11 03:31:45;;;;;;;1.77;0.90;;;;;;;16.00;58.64;97233.44;5021470;28;20474;-71
2023/05/11 03:34:10;;;;;;;0.97;0.70;;;;;;;15.96;58.83;97230.31;5010216;28;21011;-70
2023/05/11 03:36:37;;;;;;;2.17;0.90;;;;;;;15.96;59.11;97234.78;5016041;28;20209;-71
2023/05/11 03:39:03;;;;;;;1.10;1.00;;;;;;;15.96;59.54;97229.50;5019088;28;20203;-71
2023/05/11 03:41:30;;;;;;;2.83;1.00;;;;;;;15.95;59.28;97233.97;5013198;28;20427;-72
2023/05/11 03:43:58;;;;;;;2.33;1.00;;;;;;;16.01;59.23;97232.41;5012452;28;20196;-71
2023/05/11 03:46:24;;;;;;;1.10;0.90;;;;;;;16.05;59.06;97233.66;5015312;28;20473;-71
2023/05/11 03:48:50;;;;;;;1.57;1.00;;;;;;;16.00;59.55;97230.78;5017146;28;20435;-72
2023/05/11 03:51:15;;;;;;;3.13;0.90;;;;;;;16.01;59.88;97232.41;5008536;28;20579;-72
2023/05/11 03:53:41;;;;;;;4.30;1.00;;;;;;;16.00;59.34;97225.50;5006109;28;20991;-71
2023/05/11 03:56:07;;;;;;;2.40;1.10;;;;;;;15.88;59.34;97221.69;5016696;28;20297;-71
2023/05/11 03:58:32;;;;;;;2.23;0.80;;;;;;;15.89;58.97;97228.59;5004022;28;20193;-72
2023/05/11 04:00:58;;;;;;;1.93;1.00;;;;;;;15.89;58.78;97221.50;5016393;28;20492;-72
2023/05/11 04:03:23;;;;;;;8.00;1.00;;;;;;;15.92;58.79;97225.59;5010278;28;20196;-70
2023/05/11 04:05:49;;;;;;;2.50;0.97;;;;;;;15.93;58.73;97214.84;5015615;28;20362;-71
2023/05/11 04:08:14;;;;;;;1.50;1.00;;;;;;;15.94;59.03;97226.22;5015491;28;20669;-69
2023/05/11 04:10:40;;;;;;;1.83;1.70;;;;;;;15.99;59.51;97223.84;5010140;28;20635;-71
2023/05/11 04:13:05;;;;;;;3.23;1.33;;;;;;;15.99;59.85;97218.56;5012160;28;20676;-71
2023/05/11 04:15:31;;;;;;;3.80;1.60;;;;;;;15.94;60.52;97216.47;5015638;28;20218;-71
2023/05/11 04:17:56;;;;;;;1.40;1.30;;;;;;;15.97;60.86;97215.28;5004656;28;20243;-70
2023/05/11 04:20:21;;;;;;;5.57;1.30;;;;;;;15.94;61.10;97220.94;5011126;28;20872;-70
2023/05/11 04:22:47;;;;;;;2.30;1.30;;;;;;;15.95;60.84;97217.28;5020032;28;20196;-70
2023/05/11 04:25:13;;;;;;;7.90;1.70;;;;;;;15.96;60.64;97218.94;5017111;28;20257;-69
2023/05/11 04:27:38;;;;;;;4.70;1.23;;;;;;;15.97;60.69;97223.22;5008480;28;20192;-71
2023/05/11 04:30:05;;;;;;;4.80;1.30;;;;;;;15.99;60.61;97218.56;5019202;28;20803;-70
2023/05/11 04:32:30;;;;;;;5.00;1.40;;;;;;;16.00;59.63;97225.50;5016300;28;20196;-70
2023/05/11 04:34:56;;;;;;;2.17;1.30;;;;;;;15.97;59.69;97226.66;5013697;28;20482;-70
2023/05/11 04:37:21;;;;;;;1.83;1.07;;;;;;;16.00;60.01;97224.66;5011700;28;20192;-70
2023/05/11 04:39:47;;;;;;;4.93;1.30;;;;;;;15.90;60.80;97225.78;5016219;28;20563;-70
2023/05/11 04:42:12;;;;;;;1.83;1.20;;;;;;;15.89;61.08;97233.88;5011568;28;20335;-70
2023/05/11 04:44:38;;;;;;;4.73;1.30;;;;;;;15.89;61.54;97228.59;5006431;28;20262;-70
2023/05/11 04:47:03;;;;;;;6.53;1.23;;;;;;;15.88;61.38;97226.97;5009293;28;20219;-69
2023/05/11 04:49:29;;;;;;;2.00;1.37;;;;;;;15.85;61.97;97227.34;5015579;28;20192;-70
2023/05/11 04:51:54;;;;;;;2.80;1.60;;;;;;;15.89;61.84;97229.44;5012429;28;20965;-70
2023/05/11 04:54:20;;;;;;;2.40;1.60;;;;;;;15.87;61.44;97225.34;5014496;28;20212;-71
2023/05/11 04:56:45;;;;;;;1.67;1.30;;;;;;;15.86;61.77;97231.63;5016402;28;20338;-71
2023/05/11 04:59:11;;;;;;;7.90;1.50;;;;;;;15.89;61.74;97231.25;5011385;28;20684;-70
2023/05/11 05:01:36;;;;;;;6.27;1.37;;;;;;;15.91;61.71;97229.22;5010082;28;20191;-72
2023/05/11 05:04:02;;;;;;;1.50;1.37;;;;;;;15.87;62.02;97225.34;5014842;28;20195;-71
2023/05/11 05:06:27;;;;;;;2.70;1.20;;;;;;;15.81;62.14;97222.41;5006391;28;20211;-69
2023/05/11 05:08:53;;;;;;;5.03;1.73;;;;;;;15.86;62.06;97227.16;5014211;28;20222;-71
2023/05/11 05:11:18;;;;;;;2.27;1.30;;;;;;;15.84;62.49;97228.31;5009628;28;20236;-71
2023/05/11 05:13:44;;;;;;;2.90;1.30;;;;;;;15.85;62.25;97232.63;5013303;28;20299;-71
2023/05/11 05:16:09;;;;;;;1.80;1.50;;;;;;;15.89;62.14;97226.78;5010433;28;20899;-71
2023/05/11 05:18:35;;;;;;;2.30;1.50;;;;;;;15.84;62.36;97230.97;5008518;28;20189;-72
2023/05/11 05:21:01;;;;;;;3.57;2.30;;;;;;;15.93;62.16;97224.59;5013434;28;20196;-71
2023/05/11 05:23:26;;;;;;;5.27;1.60;;;;;;;15.90;61.66;97225.78;5017734;28;20431;-72
2023/05/11 05:25:52;;;;;;;2.23;1.50;;;;;;;15.83;62.28;97230.13;5011069;28;20298;-72
2023/05/11 05:28:17;;;;;;;4.33;1.40;;;;;;;15.86;61.86;97236.91;5008518;28;20188;-72
2023/05/11 05:30:43;;;;;;;3.77;1.70;;;;;;;15.86;61.70;97231.63;5012378;28;20279;-72
2023/05/11 05:33:08;;;;;;;1.87;1.40;;;;;;;15.86;61.99;97235.06;5008707;28;20197;-72
2023/05/11 05:35:34;;;;;;;14.10;2.20;;;;;;;15.90;62.13;97240.81;5014598;28;20223;-71
2023/05/11 05:37:59;;;;;;;1.53;1.30;;;;;;;15.90;62.06;97236.34;5016173;28;20205;-72
2023/05/11 05:40:24;;;;;;;5.90;4.47;;;;;;;15.95;62.46;97239.25;5010602;28;20279;-70
2023/05/11 05:42:50;;;;;;;6.93;5.47;;;;;;;15.95;62.42;97243.72;5006700;28;20278;-71
2023/05/11 05:45:16;;;;;;;4.50;3.77;;;;;;;15.93;61.99;97243.91;5010607;28;20282;-71
2023/05/11 05:47:41;;;;;;;6.00;3.40;;;;;;;15.97;61.77;97241.72;5009428;28;20191;-73
2023/05/11 05:50:07;;;;;;;6.03;5.03;;;;;;;16.05;62.04;97246.88;5006792;28;20207;-72
2023/05/11 05:52:32;;;;;;;5.73;2.20;;;;;;;16.07;61.41;97247.53;5006227;28;20725;-72
2023/05/11 05:54:58;;;;;;;6.70;4.13;;;;;;;16.16;61.97;97250.88;5006313;28;20771;-71
2023/05/11 05:57:23;;;;;;;5.20;3.93;;;;;;;16.24;62.25;97242.81;5007143;28;20222;-72
2023/05/11 05:59:49;;;;;;;4.43;2.40;;;;;;;16.33;61.60;97248.81;5010800;28;20247;-73
2023/05/11 06:02:15;;;;;;;5.43;2.77;;;;;;;16.36;61.10;97251.09;5005306;28;20208;-74
2023/05/11 06:04:40;;;;;;;2.43;2.23;;;;;;;16.40;60.21;97247.03;5015021;28;20188;-74
2023/05/11 06:07:06;;;;;;;2.67;2.30;;;;;;;16.47;59.61;97248.94;5012971;28;20212;-72
2023/05/11 06:09:31;;;;;;;5.33;1.53;;;;;;;16.48;59.20;97251.38;5015063;28;20226;-73
2023/05/11 06:11:57;;;;;;;1.83;1.63;;;;;;;16.52;58.93;97255.31;5010526;28;20195;-74
2023/05/11 06:14:22;;;;;;;2.17;1.93;;;;;;;16.58;58.95;97249.25;5023933;28;20239;-72
2023/05/11 06:16:48;;;;;;;1.97;1.70;;;;;;;16.63;58.99;97250.50;5013119;28;20282;-73
2023/05/11 06:19:14;;;;;;;1.70;1.60;;;;;;;16.66;58.90;97256.25;5016926;28;20223;-73
2023/05/11 06:21:44;;;;;;;6.20;1.80;;;;;;;16.72;58.90;97254.66;5017212;28;20670;-71
2023/05/11 06:24:09;;;;;;;3.30;1.70;;;;;;;16.74;58.97;97253.47;5022239;28;20853;-72
2023/05/11 06:26:35;;;;;;;2.10;1.90;;;;;;;16.80;59.05;97251.06;5018196;28;20548;-73
2023/05/11 06:29:00;;;;;;;3.03;2.07;;;;;;;16.84;58.87;97257.63;5018304;28;20511;-74
2023/05/11 06:31:26;;;;;;;2.13;1.70;;;;;;;16.88;59.29;97256.25;5015630;28;20275;-72
2023/05/11 06:33:51;;;;;;;4.43;1.53;;;;;;;16.90;59.08;97262.13;5010951;28;20239;-73
2023/05/11 06:36:17;;;;;;;1.47;1.37;;;;;;;16.89;58.61;97258.69;5017845;28;20762;-74
2023/05/11 06:38:42;;;;;;;1.40;1.30;;;;;;;16.85;58.45;97259.25;5015105;28;20191;-73
2023/05/11 06:41:10;;;;;;;1.33;1.20;;;;;;;16.80;58.41;97262.47;5013274;28;20234;-74
2023/05/11 06:43:36;;;;;;;2.70;1.20;;;;;;;16.66;58.08;97258.88;5011708;28;20223;-75
2023/05/11 06:46:02;;;;;;;4.80;1.50;;;;;;;16.56;58.04;97258.38;5014357;28;20592;-74
2023/05/11 06:48:28;;;;;;;2.13;1.20;;;;;;;16.54;57.91;97260.41;5013845;28;21106;-73
2023/05/11 06:50:54;;;;;;;2.17;1.50;;;;;;;16.52;57.96;97259.75;5022543;28;20586;-74
2023/05/11 06:53:20;;;;;;;1.37;1.27;;;;;;;16.52;58.38;97257.13;5009719;28;20466;-75
2023/05/11 06:55:46;;;;;;;3.50;1.90;;;;;;;16.54;58.56;97263.88;5016547;28;20462;-76
2023/05/11 06:58:11;;;;;;;1.50;1.10;;;;;;;16.56;58.63;97263.69;5011113;28;20184;-73
2023/05/11 07:00:37;;;;;;;2.30;1.07;;;;;;;16.60;58.26;97254.38;5014464;28;20239;-74
2023/05/11 07:03:02;;;;;;;6.10;1.47;;;;;;;16.59;57.85;97255.38;5011746;28;20253;-74
2023/05/11 07:05:29;;;;;;;1.50;1.40;;;;;;;16.58;58.13;97248.44;5012819;28;20207;-75
2023/05/11 07:07:54;;;;;;;2.07;1.30;;;;;;;16.63;57.84;97261.09;5018370;28;20188;-74
2023/05/11 07:10:20;;;;;;;1.90;1.43;;;;;;;16.63;58.05;97261.09;5017974;28;20954;-75
2023/05/11 07:12:45;;;;;;;2.57;1.20;;;;;;;16.59;58.02;97264.13;5015838;28;20195;-73
2023/05/11 07:15:11;;;;;;;1.70;1.60;;;;;;;16.59;58.53;97268.59;5012453;28;20212;-75
2023/05/11 07:17:36;;;;;;;3.03;1.57;;;;;;;16.63;58.84;97266.38;5011309;28;20196;-75
2023/05/11 07:20:02;;;;;;;2.63;1.30;;;;;;;16.56;58.78;97261.88;5012215;28;20685;-75
2023/05/11 07:22:28;;;;;;;4.27;1.10;;;;;;;16.60;58.92;97264.94;5014588;28;20193;-74
2023/05/11 07:24:53;;;;;;;4.80;1.57;;;;;;;16.54;58.54;97268.34;5017936;28;20184;-75
2023/05/11 07:27:18;;;;;;;1.37;1.17;;;;;;;16.61;58.63;97271.03;5012832;28;20224;-75
2023/05/11 07:29:44;;;;;;;2.50;2.30;;;;;;;16.60;59.18;97267.59;5017504;28;20202;-73
2023/05/11 07:32:09;;;;;;;1.50;1.40;;;;;;;16.56;59.63;97271.63;5018101;28;20771;-75
2023/05/11 07:34:35;;;;;;;2.17;1.60;;;;;;;16.51;59.34;97268.69;5017857;28;20214;-72
2023/05/11 07:37:00;;;;;;;6.50;1.90;;;;;;;16.48;59.76;97271.75;5018110;28;20204;-75
2023/05/11 07:39:26;;;;;;;2.90;1.50;;;;;;;16.37;60.31;97270.41;5010247;28;20267;-75
2023/05/11 07:41:51;;;;;;;2.67;1.60;;;;;;;16.40;60.32;97268.19;5014034;28;20193;-74
2023/05/11 07:44:17;;;;;;;2.83;1.70;;;;;;;16.47;60.09;97275.41;5016004;28;20358;-75
2023/05/11 07:46:42;;;;;;;5.60;3.57;;;;;;;16.45;60.18;97272.13;5017077;28;20219;-75
2023/05/11 07:49:09;;;;;;;3.33;2.33;;;;;;;16.53;60.53;97272.81;5018059;28;20204;-74
2023/05/11 07:51:36;;;;;;;7.17;5.83;;;;;;;16.60;60.97;97272.88;5010426;28;20204;-74
2023/05/11 07:54:01;;;;;;;8.83;7.43;;;;;;;16.70;61.33;97272.53;5009849;28;20467;-74
2023/05/11 07:56:27;;;;;;;9.23;7.47;;;;;;;16.77;61.33;97272.59;5009550;28;20546;-74
2023/05/11 07:58:52;;;;;;;14.67;9.17;;;;;;;16.83;60.75;97266.56;5013729;28;20192;-74
2023/05/11 08:01:17;;;;;;;3.20;2.93;;;;;;;16.80;60.19;97270.44;5009710;28;20287;-73
2023/05/11 08:03:43;;;;;;;3.53;2.77;;;;;;;16.81;57.88;97263.28;5013302;28;20556;-75
2023/05/11 08:06:08;;;;;;;4.20;1.60;;;;;;;16.82;58.02;97259.63;5018193;28;20299;-74
2023/05/11 08:08:34;;;;;;;2.20;2.00;;;;;;;16.82;58.36;97268.38;5015924;28;20909;-74
2023/05/11 08:11:00;;;;;;;3.63;3.33;;;;;;;16.89;58.74;97263.16;5016782;28;20196;-74
2023/05/11 08:13:26;;;;;;;3.13;1.90;;;;;;;16.95;59.58;97262.41;5013036;28;20188;-71
2023/05/11 08:15:51;;;;;;;13.43;10.60;;;;;;;16.98;59.82;97267.34;5012855;28;21061;-75
2023/05/11 08:18:17;;;;;;;8.50;7.50;;;;;;;17.03;60.14;97267.56;5008707;28;20192;-73
2023/05/11 08:20:42;;;;;;;7.70;5.00;;;;;;;17.06;60.14;97274.31;5013551;28;20607;-72
2023/05/11 08:23:09;;;;;;;10.70;6.03;;;;;;;17.11;60.15;97268.44;5011946;28;20194;-73
2023/05/11 08:25:34;;;;;;;11.07;8.87;;;;;;;17.10;60.48;97272.09;5010806;28;20680;-72
2023/05/11 08:28:00;;;;;;;1.90;1.80;;;;;;;17.03;59.96;97272.88;5014772;28;20437;-74
2023/05/11 08:30:26;;;;;;;1.40;1.30;;;;;;;16.91;59.81;97269.06;5011382;28;20544;-71
2023/05/11 08:32:51;;;;;;;2.73;1.70;;;;;;;16.79;60.41;97265.31;5011794;28;20442;-71
2023/05/11 08:35:17;;;;;;;4.80;1.70;;;;;;;16.79;59.85;97267.94;5018049;28;20299;-70
2023/05/11 08:37:42;;;;;;;2.07;1.60;;;;;;;16.84;59.72;97271.66;5010686;28;20189;-70
2023/05/11 08:40:10;;;;;;;1.73;1.37;;;;;;;16.91;59.67;97274.38;5012514;28;20206;-71
2023/05/11 08:42:38;;;;;;;3.50;1.40;;;;;;;16.95;59.16;97267.72;5008491;28;20563;-71
2023/05/11 08:45:05;;;;;;;3.67;1.57;;;;;;;17.00;58.61;97267.97;5014296;28;20426;-71
2023/05/11 08:47:31;;;;;;;1.73;1.50;;;;;;;17.02;58.81;97271.22;5011756;28;20990;-72
2023/05/11 08:49:57;;;;;;;2.03;1.27;;;;;;;17.08;58.54;97266.19;5017049;28;20431;-71
2023/05/11 08:52:24;;;;;;;2.33;1.67;;;;;;;17.09;58.59;97275.75;5008790;28;20549;-70
2023/05/11 08:54:49;;;;;;;3.13;1.87;;;;;;;17.13;58.07;97277.03;5007349;28;20263;-74
2023/05/11 08:57:15;;;;;;;9.80;1.53;;;;;;;17.11;58.16;97274.56;5008599;28;21076;-71
2023/05/11 08:59:43;;;;;;;1.70;1.40;;;;;;;17.14;58.42;97274.16;5010977;28;20199;-71
2023/05/11 09:02:16;;;;;;;1.70;1.30;;;;;;;17.15;58.27;97277.63;5014373;28;20192;-71
2023/05/11 09:04:43;;;;;;;1.50;1.40;;;;;;;17.15;58.63;97282.91;5017581;28;20528;-72
2023/05/11 09:07:10;;;;;;;2.50;1.70;;;;;;;17.11;58.48;97266.59;5008664;28;20586;-72
2023/05/11 09:09:36;;;;;;;2.60;1.70;;;;;;;17.08;58.97;97274.13;5008607;28;20443;-72
2023/05/11 09:12:01;;;;;;;1.70;1.60;;;;;;;17.10;59.07;97272.09;5013080;28;20447;-73
2023/05/11 09:14:28;;;;;;;1.60;1.50;;;;;;;17.08;58.51;97282.06;5026435;28;20684;-72
2023/05/11 09:16:53;;;;;;;2.53;1.20;;;;;;;17.10;58.63;97272.09;5007096;28;20227;-72
2023/05/11 09:19:19;;;;;;;2.50;1.10;;;;;;;17.12;58.84;97267.44;5007978;28;20424;-70
2023/05/11 09:21:46;;;;;;;1.70;1.30;;;;;;;17.11;58.62;97273.75;5008231;28;20188;-71
2023/05/11 09:24:12;;;;;;;1.53;1.40;;;;;;;17.11;58.53;97274.56;5007520;28;20189;-72
2023/05/11 09:26:37;;;;;;;1.70;1.60;;;;;;;17.15;58.77;97270.53;5007665;28;20454;-73
2023/05/11 09:29:03;;;;;;;4.03;2.87;;;;;;;17.14;58.93;97276.00;5010358;28;20266;-73
2023/05/11 09:31:36;;;;;;;8.93;6.20;;;;;;;17.16;59.52;97271.31;5011962;28;20768;-72
2023/05/11 09:34:09;;;;;;;7.30;5.70;;;;;;;17.17;59.40;97272.97;5046499;28;20212;-71
2023/05/11 09:36:34;;;;;;;4.47;3.70;;;;;;;17.17;58.26;97272.97;5015711;28;20487;-71
2023/05/11 09:39:03;;;;;;;4.87;3.83;;;;;;;17.15;58.04;97272.34;5007755;28;20515;-73
2023/05/11 09:41:31;;;;;;;4.83;3.67;;;;;;;17.13;58.30;97272.53;5005692;28;20564;-71
2023/05/11 09:44:11;;;;;;;11.17;3.60;;;;;;;17.12;58.43;97264.78;5003285;28;20429;-71
2023/05/11 09:46:43;;;;;;;4.40;2.70;;;;;;;17.14;58.17;97276.81;5017119;28;20790;-72
2023/05/11 09:49:09;;;;;;;3.97;3.57;;;;;;;17.12;57.81;97267.44;5013419;28;20877;-72
2023/05/11 09:51:39;;;;;;;10.53;2.30;;;;;;;17.16;58.00;97268.69;5015848;28;20431;-73
2023/05/11 09:54:18;;;;;;;3.53;2.50;;;;;;;17.19;58.08;97271.78;5008252;28;20460;-71
2023/05/11 09:56:46;;;;;;;2.57;2.37;;;;;;;17.26;58.43;97271.81;5005827;28;20451;-71
2023/05/11 09:59:13;;;;;;;2.27;2.07;;;;;;;17.25;58.31;97278.13;5011146;28;20437;-71
2023/05/11 10:01:39;;;;;;;3.40;2.10;;;;;;;17.29;58.53;97271.41;5007604;28;20983;-72
2023/05/11 10:04:05;;;;;;;2.50;2.30;;;;;;;17.32;58.97;97271.03;5015199;28;20529;-72
2023/05/11 10:06:51;;;;;;;2.83;2.10;;;;;;;17.40;59.27;97266.59;5015023;28;20362;-71
2023/05/11 10:09:18;;;;;;;3.47;2.13;;;;;;;17.40;59.19;97267.41;4986258;28;20431;-72
2023/05/11 10:11:44;;;;;;;4.00;1.80;;;;;;;17.45;59.07;97272.13;5042677;28;20509;-72
2023/05/11 10:14:13;;;;;;;2.50;1.37;;;;;;;17.44;58.64;97270.50;5027184;28;20521;-72
2023/05/11 10:16:41;;;;;;;4.07;1.83;;;;;;;17.49;58.50;97265.44;5013797;28;20455;-72
2023/05/11 10:19:06;;;;;;;3.23;1.87;;;;;;;17.52;58.25;97269.53;5014597;28;20489;-70
2023/05/11 10:21:33;;;;;;;2.43;1.73;;;;;;;17.54;58.18;97268.31;5009350;28;20436;-71
2023/05/11 10:24:00;;;;;;;2.53;1.60;;;;;;;17.60;58.40;97270.19;5019132;28;20187;-72
2023/05/11 10:26:25;;;;;;;2.40;1.50;;;;;;;17.64;58.43;97267.97;5020908;28;21002;-72
2023/05/11 10:28:51;;;;;;;1.67;1.57;;;;;;;17.68;57.61;97263.06;5000655;28;20434;-73
2023/05/11 10:31:22;;;;;;;3.23;1.73;;;;;;;17.66;56.75;97266.75;5007149;28;20192;-72
2023/05/11 10:33:52;;;;;;;1.43;1.33;;;;;;;17.70;57.00;97267.19;5016719;28;20206;-72
2023/05/11 10:36:17;;;;;;;1.70;1.60;;;;;;;17.70;57.17;97266.34;5019185;28;20450;-71
2023/05/11 10:38:43;;;;;;;1.70;1.60;;;;;;;17.73;56.60;97256.19;5011656;28;20497;-72
2023/05/11 10:41:21;;;;;;;3.53;1.50;;;;;;;17.74;56.08;97264.97;5014234;28;20184;-72
2023/05/11 10:44:06;;;;;;;2.27;1.90;;;;;;;17.69;56.26;97265.56;5019036;28;20253;-72
2023/05/11 10:47:02;;;;;;;1.73;1.63;;;;;;;17.70;55.36;97255.75;5010598;28;20465;-71
2023/05/11 10:49:41;;;;;;;1.83;1.73;;;;;;;17.71;56.22;97260.84;5015479;28;20447;-71
2023/05/11 10:52:28;;;;;;;3.37;1.97;;;;;;;17.74;56.73;97259.66;5013037;28;20439;-70
2023/05/11 10:55:20;;;;;;;2.50;2.30;;;;;;;17.80;57.21;97251.75;5005768;28;20833;-71
2023/05/11 10:58:08;;;;;;;7.47;2.40;;;;;;;17.87;57.17;97250.94;5043351;28;20442;-73
2023/05/11 11:00:57;;;;;;;2.30;2.10;;;;;;;17.86;57.35;97250.13;5023352;28;20519;-71
2023/05/11 11:03:23;;;;;;;4.33;1.93;;;;;;;17.82;56.61;97248.88;5015381;28;20434;-71
2023/05/11 11:05:49;;;;;;;2.20;1.70;;;;;;;17.81;55.79;97247.25;5019741;28;20446;-71
2023/05/11 11:08:14;;;;;;;2.43;2.10;;;;;;;17.83;55.42;97250.50;5014667;28;20199;-72
2023/05/11 11:10:45;;;;;;;2.60;1.87;;;;;;;17.78;55.58;97248.47;5011917;28;20188;-72
2023/05/11 11:13:14;;;;;;;3.00;2.30;;;;;;;17.78;55.88;97242.31;5013700;28;20624;-73
2023/05/11 11:15:52;;;;;;;2.40;2.20;;;;;;;17.83;56.02;97241.75;5016276;28;20935;-71
2023/05/11 11:18:21;;;;;;;2.90;2.70;;;;;;;17.89;56.58;97240.94;5011378;28;20682;-72
2023/05/11 11:20:48;;;;;;;3.40;2.67;;;;;;;17.92;56.21;97237.91;5020225;28;20501;-73
2023/05/11 11:23:41;;;;;;;2.73;2.40;;;;;;;17.91;55.39;97246.88;5016461;28;20853;-71
2023/05/11 11:26:08;;;;;;;3.70;3.40;;;;;;;17.98;54.99;97246.94;5019097;28;20447;-72
2023/05/11 11:28:53;;;;;;;3.23;2.93;;;;;;;18.02;55.28;97245.53;5014439;28;20431;-71
2023/05/11 11:31:44;;;;;;;1.77;1.40;;;;;;;18.01;53.93;97241.25;5007862;28;20431;-72
2023/05/11 11:34:28;;;;;;;3.67;1.60;;;;;;;18.01;53.44;97247.34;5009013;28;20547;-72
2023/05/11 11:36:53;;;;;;;3.67;3.30;;;;;;;18.07;53.56;97240.44;5018124;28;21002;-71